Kitty Hawk, North Carolina
Current Conditions -  °F | °C
As of 7:35 AM on Thursday 23 Oct 2014 (Local Time) from KFFA Reporting Station
Overcast Overcast  
Wind Chill: 54°   Ceiling: 3800
Heat Index: 54°   Visibility: 10mi
Dew Point: 45°   Wind: 15mph
Humidity: 74%   Direction: 290°WNW
Pressure: 29.88"   Gusts: 24mph
Location:  36.06°N, 75.71°W
Report Text: KFFA 231135Z AUTO 29013G21KT 10SM OVC038 12/07 A2988 RMK AO2 T01200074
Loading
Personal Weather Stations






























Interactive Weather Map
Tropical Storm Tracking
New forecast layout! Learn more

10-Day Weather Forecast

Advertisements
Track Severe Weather on mobile